sensor_id;sensor_type;location;lat;lon;timestamp;temperature;humidity
8633;DHT22;4354;49.832;10.746;2022-12-20T00:01:25;0.70;99.90
8633;DHT22;4354;49.832;10.746;2022-12-20T00:03:54;0.70;99.90
8633;DHT22;4354;49.832;10.746;2022-12-20T00:06:22;0.70;99.90
8633;DHT22;4354;49.832;10.746;2022-12-20T00:08:53;0.70;99.90
8633;DHT22;4354;49.832;10.746;2022-12-20T00:11:20;0.80;99.90
8633;DHT22;4354;49.832;10.746;2022-12-20T00:13:47;0.80;99.90
8633;DHT22;4354;49.832;10.746;2022-12-20T00:16:18;0.90;99.90
8633;DHT22;4354;49.832;10.746;2022-12-20T00:18:45;0.90;99.90
8633;DHT22;4354;49.832;10.746;2022-12-20T00:21:13;1.00;99.90
8633;DHT22;4354;49.832;10.746;2022-12-20T00:23:40;1.00;99.90
8633;DHT22;4354;49.832;10.746;2022-12-20T00:26:10;1.00;99.90
8633;DHT22;4354;49.832;10.746;2022-12-20T00:28:38;1.00;99.90
8633;DHT22;4354;49.832;10.746;2022-12-20T00:31:07;1.00;99.90
8633;DHT22;4354;49.832;10.746;2022-12-20T00:33:36;1.10;99.90
8633;DHT22;4354;49.832;10.746;2022-12-20T00:36:04;1.10;99.90
8633;DHT22;4354;49.832;10.746;2022-12-20T00:38:31;1.10;99.90
8633;DHT22;4354;49.832;10.746;2022-12-20T00:41:10;1.20;99.90
8633;DHT22;4354;49.832;10.746;2022-12-20T00:43:38;1.20;99.90
8633;DHT22;4354;49.832;10.746;2022-12-20T00:46:06;1.30;99.90
8633;DHT22;4354;49.832;10.746;2022-12-20T00:48:33;1.30;99.90
8633;DHT22;4354;49.832;10.746;2022-12-20T00:51:11;1.30;99.90
8633;DHT22;4354;49.832;10.746;2022-12-20T00:53:39;1.30;99.90
8633;DHT22;4354;49.832;10.746;2022-12-20T00:56:06;1.30;99.90
8633;DHT22;4354;49.832;10.746;2022-12-20T00:58:39;1.30;99.90
8633;DHT22;4354;49.832;10.746;2022-12-20T01:03:43;1.40;99.90
8633;DHT22;4354;49.832;10.746;2022-12-20T01:06:10;1.40;99.90
8633;DHT22;4354;49.832;10.746;2022-12-20T01:08:37;1.40;99.90
8633;DHT22;4354;49.832;10.746;2022-12-20T01:13:34;1.50;99.90
8633;DHT22;4354;49.832;10.746;2022-12-20T01:16:14;1.50;99.90
8633;DHT22;4354;49.832;10.746;2022-12-20T01:18:41;1.60;99.90
8633;DHT22;4354;49.832;10.746;2022-12-20T01:21:10;1.60;99.90
8633;DHT22;4354;49.832;10.746;2022-12-20T01:23:38;1.60;99.90
8633;DHT22;4354;49.832;10.746;2022-12-20T01:26:07;1.60;99.90
8633;DHT22;4354;49.832;10.746;2022-12-20T01:28:39;1.60;99.90
8633;DHT22;4354;49.832;10.746;2022-12-20T01:31:07;1.50;99.90
8633;DHT22;4354;49.832;10.746;2022-12-20T01:33:35;1.50;99.90
8633;DHT22;4354;49.832;10.746;2022-12-20T01:36:05;1.50;99.90
8633;DHT22;4354;49.832;10.746;2022-12-20T01:38:33;1.50;99.90
8633;DHT22;4354;49.832;10.746;2022-12-20T01:41:00;1.50;99.90
8633;DHT22;4354;49.832;10.746;2022-12-20T01:43:48;1.50;99.90
8633;DHT22;4354;49.832;10.746;2022-12-20T01:46:18;1.50;99.90
8633;DHT22;4354;49.832;10.746;2022-12-20T01:49:11;1.50;99.90
8633;DHT22;4354;49.832;10.746;2022-12-20T01:51:48;1.60;99.90
8633;DHT22;4354;49.832;10.746;2022-12-20T01:54:16;1.60;99.90
8633;DHT22;4354;49.832;10.746;2022-12-20T01:56:48;1.60;99.90
8633;DHT22;4354;49.832;10.746;2022-12-20T01:59:16;1.70;99.90
8633;DHT22;4354;49.832;10.746;2022-12-20T02:01:43;1.70;99.90
8633;DHT22;4354;49.832;10.746;2022-12-20T02:04:11;1.70;99.90
8633;DHT22;4354;49.832;10.746;2022-12-20T02:06:38;1.80;99.90
8633;DHT22;4354;49.832;10.746;2022-12-20T02:09:05;1.70;99.90
8633;DHT22;4354;49.832;10.746;2022-12-20T02:14:47;1.80;99.90
8633;DHT22;4354;49.832;10.746;2022-12-20T02:31:21;1.60;99.90
8633;DHT22;4354;49.832;10.746;2022-12-20T02:33:51;1.60;99.90
8633;DHT22;4354;49.832;10.746;2022-12-20T02:36:19;1.50;99.90
8633;DHT22;4354;49.832;10.746;2022-12-20T02:38:46;1.50;99.90
8633;DHT22;4354;49.832;10.746;2022-12-20T02:41:19;1.50;99.90
8633;DHT22;4354;49.832;10.746;2022-12-20T02:43:54;1.50;99.90
8633;DHT22;4354;49.832;10.746;2022-12-20T02:46:41;1.50;99.90
8633;DHT22;4354;49.832;10.746;2022-12-20T02:49:12;1.50;99.90
8633;DHT22;4354;49.832;10.746;2022-12-20T02:51:43;1.40;99.90
8633;DHT22;4354;49.832;10.746;2022-12-20T02:54:12;1.40;99.90
8633;DHT22;4354;49.832;10.746;2022-12-20T02:57:04;1.50;99.90
8633;DHT22;4354;49.832;10.746;2022-12-20T03:00:19;1.50;99.90
8633;DHT22;4354;49.832;10.746;2022-12-20T03:02:27;1.40;99.90
8633;DHT22;4354;49.832;10.746;2022-12-20T03:04:56;1.50;99.90
8633;DHT22;4354;49.832;10.746;2022-12-20T03:07:24;1.50;99.90
8633;DHT22;4354;49.832;10.746;2022-12-20T03:09:50;1.50;99.90
8633;DHT22;4354;49.832;10.746;2022-12-20T03:12:17;1.50;99.90
8633;DHT22;4354;49.832;10.746;2022-12-20T03:14:44;1.50;99.90
8633;DHT22;4354;49.832;10.746;2022-12-20T03:17:11;1.50;99.90
8633;DHT22;4354;49.832;10.746;2022-12-20T03:19:38;1.50;99.90
8633;DHT22;4354;49.832;10.746;2022-12-20T03:22:05;1.50;99.90
8633;DHT22;4354;49.832;10.746;2022-12-20T03:24:32;1.50;99.90
8633;DHT22;4354;49.832;10.746;2022-12-20T03:26:59;1.50;99.90
8633;DHT22;4354;49.832;10.746;2022-12-20T03:29:25;1.50;99.90
8633;DHT22;4354;49.832;10.746;2022-12-20T03:31:52;1.50;99.90
8633;DHT22;4354;49.832;10.746;2022-12-20T03:34:19;1.50;99.90
8633;DHT22;4354;49.832;10.746;2022-12-20T03:36:46;1.50;99.90
8633;DHT22;4354;49.832;10.746;2022-12-20T03:39:13;1.50;99.90
8633;DHT22;4354;49.832;10.746;2022-12-20T03:41:39;1.50;99.90
8633;DHT22;4354;49.832;10.746;2022-12-20T03:44:06;1.50;99.90
8633;DHT22;4354;49.832;10.746;2022-12-20T03:46:33;1.50;99.90
8633;DHT22;4354;49.832;10.746;2022-12-20T03:49:00;1.50;99.90
8633;DHT22;4354;49.832;10.746;2022-12-20T03:51:27;1.50;99.90
8633;DHT22;4354;49.832;10.746;2022-12-20T03:53:53;1.50;99.90
8633;DHT22;4354;49.832;10.746;2022-12-20T03:56:20;1.50;99.90
8633;DHT22;4354;49.832;10.746;2022-12-20T03:58:47;1.50;99.90
8633;DHT22;4354;49.832;10.746;2022-12-20T04:01:19;1.50;99.90
8633;DHT22;4354;49.832;10.746;2022-12-20T04:03:47;1.50;99.90
8633;DHT22;4354;49.832;10.746;2022-12-20T04:06:14;1.50;99.90
8633;DHT22;4354;49.832;10.746;2022-12-20T04:08:41;1.50;99.90
8633;DHT22;4354;49.832;10.746;2022-12-20T04:11:08;1.50;99.90
8633;DHT22;4354;49.832;10.746;2022-12-20T04:13:46;1.50;99.90
8633;DHT22;4354;49.832;10.746;2022-12-20T04:16:14;1.50;99.90
8633;DHT22;4354;49.832;10.746;2022-12-20T04:18:42;1.50;99.90
8633;DHT22;4354;49.832;10.746;2022-12-20T04:21:10;1.50;99.90
8633;DHT22;4354;49.832;10.746;2022-12-20T04:23:38;1.50;99.90
8633;DHT22;4354;49.832;10.746;2022-12-20T04:26:06;1.50;99.90
8633;DHT22;4354;49.832;10.746;2022-12-20T04:28:33;1.40;99.90
8633;DHT22;4354;49.832;10.746;2022-12-20T04:31:01;1.50;99.90
8633;DHT22;4354;49.832;10.746;2022-12-20T04:33:28;1.40;99.90
8633;DHT22;4354;49.832;10.746;2022-12-20T04:35:55;1.40;99.90
8633;DHT22;4354;49.832;10.746;2022-12-20T04:38:22;1.40;99.90
8633;DHT22;4354;49.832;10.746;2022-12-20T04:40:51;1.40;99.90
8633;DHT22;4354;49.832;10.746;2022-12-20T04:43:18;1.40;99.90
8633;DHT22;4354;49.832;10.746;2022-12-20T04:45:49;1.40;99.90
8633;DHT22;4354;49.832;10.746;2022-12-20T04:48:18;1.40;99.90
8633;DHT22;4354;49.832;10.746;2022-12-20T04:51:05;1.40;99.90
8633;DHT22;4354;49.832;10.746;2022-12-20T04:53:32;1.40;99.90
8633;DHT22;4354;49.832;10.746;2022-12-20T04:56:17;1.40;99.90
8633;DHT22;4354;49.832;10.746;2022-12-20T04:58:44;1.40;99.90
8633;DHT22;4354;49.832;10.746;2022-12-20T05:01:11;1.40;99.90
8633;DHT22;4354;49.832;10.746;2022-12-20T05:03:39;1.40;99.90
8633;DHT22;4354;49.832;10.746;2022-12-20T05:06:06;1.40;99.90
8633;DHT22;4354;49.832;10.746;2022-12-20T05:08:34;1.50;99.90
8633;DHT22;4354;49.832;10.746;2022-12-20T05:11:01;1.40;99.90
8633;DHT22;4354;49.832;10.746;2022-12-20T05:13:28;1.50;99.90
8633;DHT22;4354;49.832;10.746;2022-12-20T05:15:56;1.40;99.90
8633;DHT22;4354;49.832;10.746;2022-12-20T05:18:24;1.50;99.90
8633;DHT22;4354;49.832;10.746;2022-12-20T05:20:54;1.50;99.90
8633;DHT22;4354;49.832;10.746;2022-12-20T05:23:41;1.50;99.90
8633;DHT22;4354;49.832;10.746;2022-12-20T05:26:29;1.50;99.90
8633;DHT22;4354;49.832;10.746;2022-12-20T05:28:56;1.50;99.90
8633;DHT22;4354;49.832;10.746;2022-12-20T05:31:23;1.50;99.90
8633;DHT22;4354;49.832;10.746;2022-12-20T05:33:50;1.50;99.90
8633;DHT22;4354;49.832;10.746;2022-12-20T05:36:17;1.50;99.90
8633;DHT22;4354;49.832;10.746;2022-12-20T05:41:16;1.40;99.90
8633;DHT22;4354;49.832;10.746;2022-12-20T05:43:43;1.50;99.90
8633;DHT22;4354;49.832;10.746;2022-12-20T05:46:09;1.40;99.90
8633;DHT22;4354;49.832;10.746;2022-12-20T05:48:37;1.40;99.90
8633;DHT22;4354;49.832;10.746;2022-12-20T05:51:04;1.40;99.90
8633;DHT22;4354;49.832;10.746;2022-12-20T05:53:30;1.40;99.90
8633;DHT22;4354;49.832;10.746;2022-12-20T05:55:57;1.40;99.90
8633;DHT22;4354;49.832;10.746;2022-12-20T05:58:24;1.40;99.90
8633;DHT22;4354;49.832;10.746;2022-12-20T06:00:51;1.40;99.90
8633;DHT22;4354;49.832;10.746;2022-12-20T06:03:18;1.40;99.90
8633;DHT22;4354;49.832;10.746;2022-12-20T06:05:45;1.40;99.90
8633;DHT22;4354;49.832;10.746;2022-12-20T06:08:12;1.30;99.90
8633;DHT22;4354;49.832;10.746;2022-12-20T06:10:40;1.30;99.90
8633;DHT22;4354;49.832;10.746;2022-12-20T06:13:10;1.40;99.90
8633;DHT22;4354;49.832;10.746;2022-12-20T06:15:37;1.40;99.90
8633;DHT22;4354;49.832;10.746;2022-12-20T06:18:04;1.40;99.90
8633;DHT22;4354;49.832;10.746;2022-12-20T06:20:35;1.40;99.90
8633;DHT22;4354;49.832;10.746;2022-12-20T06:23:03;1.40;99.90
8633;DHT22;4354;49.832;10.746;2022-12-20T06:25:29;1.40;99.90
8633;DHT22;4354;49.832;10.746;2022-12-20T06:27:56;1.40;99.90
8633;DHT22;4354;49.832;10.746;2022-12-20T06:30:23;1.40;99.90
8633;DHT22;4354;49.832;10.746;2022-12-20T06:32:59;1.40;99.90
8633;DHT22;4354;49.832;10.746;2022-12-20T06:35:25;1.40;99.90
8633;DHT22;4354;49.832;10.746;2022-12-20T06:37:52;1.40;99.90
8633;DHT22;4354;49.832;10.746;2022-12-20T06:40:19;1.40;99.90
8633;DHT22;4354;49.832;10.746;2022-12-20T06:42:46;1.40;99.90
8633;DHT22;4354;49.832;10.746;2022-12-20T06:45:13;1.40;99.90
8633;DHT22;4354;49.832;10.746;2022-12-20T06:47:39;1.40;99.90
8633;DHT22;4354;49.832;10.746;2022-12-20T06:50:07;1.40;99.90
8633;DHT22;4354;49.832;10.746;2022-12-20T06:52:34;0.90;99.90
8633;DHT22;4354;49.832;10.746;2022-12-20T06:55:02;1.40;99.90
8633;DHT22;4354;49.832;10.746;2022-12-20T06:57:29;1.50;99.90
8633;DHT22;4354;49.832;10.746;2022-12-20T06:59:56;1.50;99.90
8633;DHT22;4354;49.832;10.746;2022-12-20T07:02:22;1.60;99.90
8633;DHT22;4354;49.832;10.746;2022-12-20T07:04:53;1.50;99.90
8633;DHT22;4354;49.832;10.746;2022-12-20T07:07:20;1.50;99.90
8633;DHT22;4354;49.832;10.746;2022-12-20T07:09:47;1.50;99.90
8633;DHT22;4354;49.832;10.746;2022-12-20T07:12:14;1.50;99.90
8633;DHT22;4354;49.832;10.746;2022-12-20T07:14:44;1.50;99.90
8633;DHT22;4354;49.832;10.746;2022-12-20T07:17:10;1.50;99.90
8633;DHT22;4354;49.832;10.746;2022-12-20T07:19:37;1.50;99.90
8633;DHT22;4354;49.832;10.746;2022-12-20T07:22:04;1.50;99.90
8633;DHT22;4354;49.832;10.746;2022-12-20T07:24:32;1.50;99.90
8633;DHT22;4354;49.832;10.746;2022-12-20T07:26:59;1.50;99.90
8633;DHT22;4354;49.832;10.746;2022-12-20T07:29:26;1.50;99.90
8633;DHT22;4354;49.832;10.746;2022-12-20T07:31:53;1.60;99.90
8633;DHT22;4354;49.832;10.746;2022-12-20T07:34:20;1.60;99.90
8633;DHT22;4354;49.832;10.746;2022-12-20T07:36:47;1.60;99.90
8633;DHT22;4354;49.832;10.746;2022-12-20T07:39:14;1.60;99.90
8633;DHT22;4354;49.832;10.746;2022-12-20T07:41:41;1.60;99.90
8633;DHT22;4354;49.832;10.746;2022-12-20T07:44:08;1.60;99.90
8633;DHT22;4354;49.832;10.746;2022-12-20T07:46:34;1.70;99.90
8633;DHT22;4354;49.832;10.746;2022-12-20T07:49:01;1.70;99.90
8633;DHT22;4354;49.832;10.746;2022-12-20T07:51:34;1.70;99.90
8633;DHT22;4354;49.832;10.746;2022-12-20T07:56:32;1.80;99.90
8633;DHT22;4354;49.832;10.746;2022-12-20T07:59:07;1.90;99.90
8633;DHT22;4354;49.832;10.746;2022-12-20T08:01:35;1.90;99.90
8633;DHT22;4354;49.832;10.746;2022-12-20T08:04:05;2.00;99.90
8633;DHT22;4354;49.832;10.746;2022-12-20T08:06:33;2.00;99.90
8633;DHT22;4354;49.832;10.746;2022-12-20T08:09:04;2.00;99.90
8633;DHT22;4354;49.832;10.746;2022-12-20T08:11:32;2.10;99.90
8633;DHT22;4354;49.832;10.746;2022-12-20T08:14:00;2.10;99.90
8633;DHT22;4354;49.832;10.746;2022-12-20T08:16:27;2.20;99.90
8633;DHT22;4354;49.832;10.746;2022-12-20T08:18:54;2.20;99.90
8633;DHT22;4354;49.832;10.746;2022-12-20T08:21:21;2.20;99.90
8633;DHT22;4354;49.832;10.746;2022-12-20T08:23:47;2.20;99.90
8633;DHT22;4354;49.832;10.746;2022-12-20T08:26:14;2.30;99.90
8633;DHT22;4354;49.832;10.746;2022-12-20T08:28:41;2.30;99.90
8633;DHT22;4354;49.832;10.746;2022-12-20T08:31:08;2.30;99.90
8633;DHT22;4354;49.832;10.746;2022-12-20T08:33:36;2.20;99.90
8633;DHT22;4354;49.832;10.746;2022-12-20T08:36:07;2.20;99.90
8633;DHT22;4354;49.832;10.746;2022-12-20T08:38:38;2.30;99.90
8633;DHT22;4354;49.832;10.746;2022-12-20T08:41:07;2.20;99.90
8633;DHT22;4354;49.832;10.746;2022-12-20T08:43:36;2.20;99.90
8633;DHT22;4354;49.832;10.746;2022-12-20T08:46:05;2.30;99.90
8633;DHT22;4354;49.832;10.746;2022-12-20T08:48:33;2.20;99.90
8633;DHT22;4354;49.832;10.746;2022-12-20T08:51:02;2.20;99.90
8633;DHT22;4354;49.832;10.746;2022-12-20T08:53:29;2.30;99.90
8633;DHT22;4354;49.832;10.746;2022-12-20T08:56:25;2.30;99.90
8633;DHT22;4354;49.832;10.746;2022-12-20T08:58:52;2.40;99.90
8633;DHT22;4354;49.832;10.746;2022-12-20T09:01:19;2.50;99.90
8633;DHT22;4354;49.832;10.746;2022-12-20T09:03:52;2.50;99.90
8633;DHT22;4354;49.832;10.746;2022-12-20T09:06:20;2.70;99.90
8633;DHT22;4354;49.832;10.746;2022-12-20T09:08:48;2.70;99.90
8633;DHT22;4354;49.832;10.746;2022-12-20T09:11:17;3.20;99.90
8633;DHT22;4354;49.832;10.746;2022-12-20T09:13:46;2.90;99.90
8633;DHT22;4354;49.832;10.746;2022-12-20T09:16:15;2.90;99.90
8633;DHT22;4354;49.832;10.746;2022-12-20T09:18:42;2.90;99.90
8633;DHT22;4354;49.832;10.746;2022-12-20T09:21:10;2.90;99.90
8633;DHT22;4354;49.832;10.746;2022-12-20T09:23:37;2.80;99.90
8633;DHT22;4354;49.832;10.746;2022-12-20T09:26:06;2.80;99.90
8633;DHT22;4354;49.832;10.746;2022-12-20T09:28:33;2.70;99.90
8633;DHT22;4354;49.832;10.746;2022-12-20T09:31:03;2.70;99.90
8633;DHT22;4354;49.832;10.746;2022-12-20T09:33:31;2.80;99.90
8633;DHT22;4354;49.832;10.746;2022-12-20T09:35:59;2.80;99.90
8633;DHT22;4354;49.832;10.746;2022-12-20T09:38:27;2.80;99.90
8633;DHT22;4354;49.832;10.746;2022-12-20T09:40:59;2.90;99.90
8633;DHT22;4354;49.832;10.746;2022-12-20T09:43:27;2.90;99.90
8633;DHT22;4354;49.832;10.746;2022-12-20T09:45:57;2.90;99.90
8633;DHT22;4354;49.832;10.746;2022-12-20T09:48:29;2.90;99.90
8633;DHT22;4354;49.832;10.746;2022-12-20T09:51:10;2.90;99.90
8633;DHT22;4354;49.832;10.746;2022-12-20T09:56:25;3.10;99.90
8633;DHT22;4354;49.832;10.746;2022-12-20T09:59:02;3.20;99.90
8633;DHT22;4354;49.832;10.746;2022-12-20T10:01:32;3.20;99.90
8633;DHT22;4354;49.832;10.746;2022-12-20T10:04:11;3.40;99.90
8633;DHT22;4354;49.832;10.746;2022-12-20T10:18:14;3.80;99.90
8633;DHT22;4354;49.832;10.746;2022-12-20T10:21:06;3.80;99.90
8633;DHT22;4354;49.832;10.746;2022-12-20T10:23:42;3.90;99.90
8633;DHT22;4354;49.832;10.746;2022-12-20T10:26:12;3.90;99.90
8633;DHT22;4354;49.832;10.746;2022-12-20T10:28:39;3.80;99.90
8633;DHT22;4354;49.832;10.746;2022-12-20T10:31:12;3.90;99.90
8633;DHT22;4354;49.832;10.746;2022-12-20T10:33:40;3.90;99.90
8633;DHT22;4354;49.832;10.746;2022-12-20T10:36:27;4.00;99.90
8633;DHT22;4354;49.832;10.746;2022-12-20T10:39:05;4.10;99.90
8633;DHT22;4354;49.832;10.746;2022-12-20T10:44:37;4.10;99.90
8633;DHT22;4354;49.832;10.746;2022-12-20T10:50:09;4.10;99.90
8633;DHT22;4354;49.832;10.746;2022-12-20T10:52:36;4.00;99.90
8633;DHT22;4354;49.832;10.746;2022-12-20T10:55:41;4.20;99.90
8633;DHT22;4354;49.832;10.746;2022-12-20T11:00:42;4.20;99.90
8633;DHT22;4354;49.832;10.746;2022-12-20T11:03:17;4.20;99.90
8633;DHT22;4354;49.832;10.746;2022-12-20T11:05:56;4.10;99.90
8633;DHT22;4354;49.832;10.746;2022-12-20T11:08:27;4.10;99.90
8633;DHT22;4354;49.832;10.746;2022-12-20T11:11:20;4.10;99.90
8633;DHT22;4354;49.832;10.746;2022-12-20T11:13:48;4.10;99.90
8633;DHT22;4354;49.832;10.746;2022-12-20T11:16:25;4.10;99.90
8633;DHT22;4354;49.832;10.746;2022-12-20T11:19:14;4.10;99.90
8633;DHT22;4354;49.832;10.746;2022-12-20T11:22:09;4.10;99.90
8633;DHT22;4354;49.832;10.746;2022-12-20T11:25:18;4.10;99.90
8633;DHT22;4354;49.832;10.746;2022-12-20T11:30:22;4.10;99.90
8633;DHT22;4354;49.832;10.746;2022-12-20T11:33:28;4.10;99.90
8633;DHT22;4354;49.832;10.746;2022-12-20T11:36:15;4.10;99.90
8633;DHT22;4354;49.832;10.746;2022-12-20T11:39:09;4.10;99.90
8633;DHT22;4354;49.832;10.746;2022-12-20T11:41:56;4.20;99.90
8633;DHT22;4354;49.832;10.746;2022-12-20T11:49:56;4.50;99.90
8633;DHT22;4354;49.832;10.746;2022-12-20T11:52:36;4.60;99.90
8633;DHT22;4354;49.832;10.746;2022-12-20T11:55:32;4.70;99.90
8633;DHT22;4354;49.832;10.746;2022-12-20T11:58:06;4.80;99.90
8633;DHT22;4354;49.832;10.746;2022-12-20T12:00:55;4.70;99.90
8633;DHT22;4354;49.832;10.746;2022-12-20T12:03:36;4.70;99.90
8633;DHT22;4354;49.832;10.746;2022-12-20T12:06:21;4.50;99.90
8633;DHT22;4354;49.832;10.746;2022-12-20T12:11:29;4.30;99.90
8633;DHT22;4354;49.832;10.746;2022-12-20T12:14:32;4.30;99.90
8633;DHT22;4354;49.832;10.746;2022-12-20T12:17:11;4.40;99.90
8633;DHT22;4354;49.832;10.746;2022-12-20T12:19:42;4.50;99.90
8633;DHT22;4354;49.832;10.746;2022-12-20T12:22:15;4.70;99.90
8633;DHT22;4354;49.832;10.746;2022-12-20T12:24:48;4.70;99.90
8633;DHT22;4354;49.832;10.746;2022-12-20T12:27:26;4.70;99.90
8633;DHT22;4354;49.832;10.746;2022-12-20T12:29:55;4.60;99.90
8633;DHT22;4354;49.832;10.746;2022-12-20T12:32:30;4.50;99.90
8633;DHT22;4354;49.832;10.746;2022-12-20T12:46:16;4.30;99.90
8633;DHT22;4354;49.832;10.746;2022-12-20T12:48:54;4.20;99.90
8633;DHT22;4354;49.832;10.746;2022-12-20T12:51:35;4.30;99.90
8633;DHT22;4354;49.832;10.746;2022-12-20T12:54:21;4.30;99.90
8633;DHT22;4354;49.832;10.746;2022-12-20T12:56:50;4.30;99.90
8633;DHT22;4354;49.832;10.746;2022-12-20T12:59:45;4.30;99.90
8633;DHT22;4354;49.832;10.746;2022-12-20T13:20:35;4.30;99.90
8633;DHT22;4354;49.832;10.746;2022-12-20T13:25:47;4.30;99.90
8633;DHT22;4354;49.832;10.746;2022-12-20T13:33:49;4.30;99.90
8633;DHT22;4354;49.832;10.746;2022-12-20T13:36:32;4.30;99.90
8633;DHT22;4354;49.832;10.746;2022-12-20T13:39:01;4.30;99.90
8633;DHT22;4354;49.832;10.746;2022-12-20T13:41:44;4.30;99.90
8633;DHT22;4354;49.832;10.746;2022-12-20T13:49:25;4.40;99.90
8633;DHT22;4354;49.832;10.746;2022-12-20T13:55:15;4.50;99.90
8633;DHT22;4354;49.832;10.746;2022-12-20T13:57:44;4.50;99.90
8633;DHT22;4354;49.832;10.746;2022-12-20T14:00:22;4.60;99.90
8633;DHT22;4354;49.832;10.746;2022-12-20T14:02:52;4.60;99.90
8633;DHT22;4354;49.832;10.746;2022-12-20T14:05:31;4.60;99.90
8633;DHT22;4354;49.832;10.746;2022-12-20T14:08:01;4.50;99.90
8633;DHT22;4354;49.832;10.746;2022-12-20T14:10:30;4.60;99.90
8633;DHT22;4354;49.832;10.746;2022-12-20T14:12:57;4.50;99.90
8633;DHT22;4354;49.832;10.746;2022-12-20T14:17:54;4.40;99.90
8633;DHT22;4354;49.832;10.746;2022-12-20T14:20:25;4.40;99.90
8633;DHT22;4354;49.832;10.746;2022-12-20T14:25:41;4.40;99.90
8633;DHT22;4354;49.832;10.746;2022-12-20T14:28:17;4.40;99.90
8633;DHT22;4354;49.832;10.746;2022-12-20T14:30:52;4.40;99.90
8633;DHT22;4354;49.832;10.746;2022-12-20T14:33:30;4.40;99.90
8633;DHT22;4354;49.832;10.746;2022-12-20T14:36:28;4.30;99.90
8633;DHT22;4354;49.832;10.746;2022-12-20T14:38:57;4.40;99.90
8633;DHT22;4354;49.832;10.746;2022-12-20T14:41:35;4.30;99.90
8633;DHT22;4354;49.832;10.746;2022-12-20T14:46:34;4.30;99.90
8633;DHT22;4354;49.832;10.746;2022-12-20T14:49:17;4.30;99.90
8633;DHT22;4354;49.832;10.746;2022-12-20T14:51:45;4.30;99.90
8633;DHT22;4354;49.832;10.746;2022-12-20T14:54:18;4.20;99.90
8633;DHT22;4354;49.832;10.746;2022-12-20T14:57:10;4.20;99.90
8633;DHT22;4354;49.832;10.746;2022-12-20T15:05:35;4.00;99.90
8633;DHT22;4354;49.832;10.746;2022-12-20T15:08:25;4.00;99.90
8633;DHT22;4354;49.832;10.746;2022-12-20T15:11:15;4.00;99.90
8633;DHT22;4354;49.832;10.746;2022-12-20T15:13:51;4.00;99.90
8633;DHT22;4354;49.832;10.746;2022-12-20T15:16:19;3.90;99.90
8633;DHT22;4354;49.832;10.746;2022-12-20T15:18:48;3.90;99.90
8633;DHT22;4354;49.832;10.746;2022-12-20T15:21:34;3.90;99.90
8633;DHT22;4354;49.832;10.746;2022-12-20T15:24:07;3.90;99.90
8633;DHT22;4354;49.832;10.746;2022-12-20T15:26:35;3.80;99.90
8633;DHT22;4354;49.832;10.746;2022-12-20T15:29:03;3.80;99.90
8633;DHT22;4354;49.832;10.746;2022-12-20T15:31:32;3.90;99.90
8633;DHT22;4354;49.832;10.746;2022-12-20T15:34:03;3.80;99.90
8633;DHT22;4354;49.832;10.746;2022-12-20T15:36:32;3.90;99.90
8633;DHT22;4354;49.832;10.746;2022-12-20T15:38:59;3.80;99.90
8633;DHT22;4354;49.832;10.746;2022-12-20T15:41:40;3.90;99.90
8633;DHT22;4354;49.832;10.746;2022-12-20T15:44:25;3.90;99.90
8633;DHT22;4354;49.832;10.746;2022-12-20T15:46:53;3.90;99.90
8633;DHT22;4354;49.832;10.746;2022-12-20T15:49:24;3.90;99.90
8633;DHT22;4354;49.832;10.746;2022-12-20T15:51:52;3.90;99.90
8633;DHT22;4354;49.832;10.746;2022-12-20T15:56:50;3.90;99.90
8633;DHT22;4354;49.832;10.746;2022-12-20T15:59:17;3.90;99.90
8633;DHT22;4354;49.832;10.746;2022-12-20T16:04:43;3.90;99.90
8633;DHT22;4354;49.832;10.746;2022-12-20T16:07:10;3.80;99.90
8633;DHT22;4354;49.832;10.746;2022-12-20T16:09:38;3.80;99.90
8633;DHT22;4354;49.832;10.746;2022-12-20T16:12:14;3.80;99.90
8633;DHT22;4354;49.832;10.746;2022-12-20T16:14:41;3.70;99.90
8633;DHT22;4354;49.832;10.746;2022-12-20T16:17:12;3.60;99.90
8633;DHT22;4354;49.832;10.746;2022-12-20T16:19:40;3.50;99.90
8633;DHT22;4354;49.832;10.746;2022-12-20T16:22:14;3.40;99.90
8633;DHT22;4354;49.832;10.746;2022-12-20T16:24:41;3.30;99.90
8633;DHT22;4354;49.832;10.746;2022-12-20T16:27:09;3.20;99.90
8633;DHT22;4354;49.832;10.746;2022-12-20T16:29:35;3.10;99.90
8633;DHT22;4354;49.832;10.746;2022-12-20T16:32:02;3.00;99.90
8633;DHT22;4354;49.832;10.746;2022-12-20T16:34:33;3.00;99.90
8633;DHT22;4354;49.832;10.746;2022-12-20T16:37:00;2.90;99.90
8633;DHT22;4354;49.832;10.746;2022-12-20T16:39:27;2.90;99.90
8633;DHT22;4354;49.832;10.746;2022-12-20T16:41:54;3.00;99.90
8633;DHT22;4354;49.832;10.746;2022-12-20T16:44:20;3.00;99.90
8633;DHT22;4354;49.832;10.746;2022-12-20T16:46:48;3.10;99.90
8633;DHT22;4354;49.832;10.746;2022-12-20T16:49:15;3.10;99.90
8633;DHT22;4354;49.832;10.746;2022-12-20T16:51:47;3.00;99.90
8633;DHT22;4354;49.832;10.746;2022-12-20T16:54:19;3.00;99.90
8633;DHT22;4354;49.832;10.746;2022-12-20T16:56:49;2.90;99.90
8633;DHT22;4354;49.832;10.746;2022-12-20T16:59:23;2.90;99.90
8633;DHT22;4354;49.832;10.746;2022-12-20T17:01:53;2.80;99.90
8633;DHT22;4354;49.832;10.746;2022-12-20T17:04:22;2.80;99.90
8633;DHT22;4354;49.832;10.746;2022-12-20T17:06:49;2.80;99.90
8633;DHT22;4354;49.832;10.746;2022-12-20T17:09:17;2.70;99.90
8633;DHT22;4354;49.832;10.746;2022-12-20T17:12:04;2.70;99.90
8633;DHT22;4354;49.832;10.746;2022-12-20T17:14:31;2.50;99.90
8633;DHT22;4354;49.832;10.746;2022-12-20T17:16:58;2.40;99.90
8633;DHT22;4354;49.832;10.746;2022-12-20T17:19:25;2.40;99.90
8633;DHT22;4354;49.832;10.746;2022-12-20T17:21:52;2.40;99.90
8633;DHT22;4354;49.832;10.746;2022-12-20T17:24:36;2.40;99.90
8633;DHT22;4354;49.832;10.746;2022-12-20T17:27:03;2.40;99.90
8633;DHT22;4354;49.832;10.746;2022-12-20T17:29:30;2.50;99.90
8633;DHT22;4354;49.832;10.746;2022-12-20T17:31:57;2.50;99.90
8633;DHT22;4354;49.832;10.746;2022-12-20T17:34:26;2.50;99.90
8633;DHT22;4354;49.832;10.746;2022-12-20T17:36:55;2.60;99.90
8633;DHT22;4354;49.832;10.746;2022-12-20T17:39:23;2.60;99.90
8633;DHT22;4354;49.832;10.746;2022-12-20T17:41:51;2.50;99.90
8633;DHT22;4354;49.832;10.746;2022-12-20T17:44:21;2.40;99.90
8633;DHT22;4354;49.832;10.746;2022-12-20T17:46:49;2.30;99.90
8633;DHT22;4354;49.832;10.746;2022-12-20T17:49:16;2.20;99.90
8633;DHT22;4354;49.832;10.746;2022-12-20T17:51:43;2.10;99.90
8633;DHT22;4354;49.832;10.746;2022-12-20T17:54:20;1.90;99.90
8633;DHT22;4354;49.832;10.746;2022-12-20T17:56:47;1.90;99.90
8633;DHT22;4354;49.832;10.746;2022-12-20T17:59:16;1.90;99.90
8633;DHT22;4354;49.832;10.746;2022-12-20T18:01:43;2.00;99.90
8633;DHT22;4354;49.832;10.746;2022-12-20T18:04:13;2.20;99.90
8633;DHT22;4354;49.832;10.746;2022-12-20T18:06:42;2.30;99.90
8633;DHT22;4354;49.832;10.746;2022-12-20T18:09:18;2.50;99.90
8633;DHT22;4354;49.832;10.746;2022-12-20T18:11:46;2.70;99.90
8633;DHT22;4354;49.832;10.746;2022-12-20T18:14:13;2.80;99.90
8633;DHT22;4354;49.832;10.746;2022-12-20T18:16:40;2.90;99.90
8633;DHT22;4354;49.832;10.746;2022-12-20T18:19:16;3.00;99.90
8633;DHT22;4354;49.832;10.746;2022-12-20T18:21:43;3.00;99.90
8633;DHT22;4354;49.832;10.746;2022-12-20T18:24:12;3.10;99.90
8633;DHT22;4354;49.832;10.746;2022-12-20T18:26:39;3.10;99.90
8633;DHT22;4354;49.832;10.746;2022-12-20T18:29:07;3.20;99.90
8633;DHT22;4354;49.832;10.746;2022-12-20T18:31:34;3.20;99.90
8633;DHT22;4354;49.832;10.746;2022-12-20T18:34:02;3.20;99.90